aviador You're here:

KFUL Decoded Metar

FULLERTON in CA, USA
Report Time2018-07-21 18:53:00
UTC Time2018-07-21 19:07:31
Flight Rules vfr VFR
WindCalm
Visibility9999 m
Phenomena:N/A
Clouds:N/A
Expected CloudBase > 5,600 ft AGL from Temp-Dew spread
CeilingNone
Temp28°C (ISA +13)
Dew Point14°C (42% RH)
Heat Index27.8°C
QNH1015 hPa
Density Alt1,785 ft
Elevation115 ft
Report Wrong Elevation
Raw Report
KFUL 211853Z 00000KT 10SM CLR 28/14 A2998 RMK AO2 SLP151
T02830144=

Extra information for KFUL:More info

Metar Taf Metar & Taf Last 4 Metars F.Rules Stats Wind Profile Meteogram Temp Stats Airport Information Weather charts Add Link Nearby VenuesMetar ALERT Operation Metar Decoded Social comments

AIRNAV info for KFUL